sensor_id;sensor_type;location;lat;lon;timestamp;pressure;altitude;pressure_sealevel;temperature;humidity
59375;BME280;45172;55.006;73.460;2023-07-20T00:02:05;98979.00;;;17.83;nan
59375;BME280;45172;55.006;73.460;2023-07-20T00:04:33;98992.25;;;17.87;nan
59375;BME280;45172;55.006;73.460;2023-07-20T00:06:59;98994.78;;;17.90;nan
59375;BME280;45172;55.006;73.460;2023-07-20T00:09:27;98989.31;;;17.93;nan
59375;BME280;45172;55.006;73.460;2023-07-20T00:11:54;98984.66;;;17.99;nan
59375;BME280;45172;55.006;73.460;2023-07-20T00:14:20;98939.88;;;17.78;nan
59375;BME280;45172;55.006;73.460;2023-07-20T00:16:50;98990.28;;;18.16;nan
59375;BME280;45172;55.006;73.460;2023-07-20T00:19:26;98950.66;;;18.01;nan
59375;BME280;45172;55.006;73.460;2023-07-20T00:21:53;98988.78;;;18.33;nan
59375;BME280;45172;55.006;73.460;2023-07-20T00:24:20;98950.94;;;18.18;nan
59375;BME280;45172;55.006;73.460;2023-07-20T00:26:46;98970.44;;;18.46;nan
59375;BME280;45172;55.006;73.460;2023-07-20T00:29:12;98960.53;;;18.48;nan
59375;BME280;45172;55.006;73.460;2023-07-20T00:31:39;98946.34;;;18.44;nan
59375;BME280;45172;55.006;73.460;2023-07-20T00:34:05;98961.41;;;18.71;nan
59375;BME280;45172;55.006;73.460;2023-07-20T00:36:32;98956.38;;;18.85;nan
59375;BME280;45172;55.006;73.460;2023-07-20T00:38:58;98972.53;;;19.06;nan
59375;BME280;45172;55.006;73.460;2023-07-20T00:41:25;98934.00;;;18.85;nan
59375;BME280;45172;55.006;73.460;2023-07-20T00:43:55;98989.38;;;19.32;nan
59375;BME280;45172;55.006;73.460;2023-07-20T00:46:23;98988.75;;;19.46;nan
59375;BME280;45172;55.006;73.460;2023-07-20T00:48:53;98982.13;;;19.55;nan
59375;BME280;45172;55.006;73.460;2023-07-20T00:51:21;98940.63;;;19.41;nan
59375;BME280;45172;55.006;73.460;2023-07-20T00:53:49;98951.13;;;19.68;nan
59375;BME280;45172;55.006;73.460;2023-07-20T00:56:16;98979.78;;;19.89;nan
59375;BME280;45172;55.006;73.460;2023-07-20T00:58:43;98975.03;;;19.94;nan
59375;BME280;45172;55.006;73.460;2023-07-20T01:01:09;98990.31;;;20.14;nan
59375;BME280;45172;55.006;73.460;2023-07-20T01:03:35;98970.63;;;20.14;nan
59375;BME280;45172;55.006;73.460;2023-07-20T01:09:11;98996.22;;;20.42;nan
59375;BME280;45172;55.006;73.460;2023-07-20T01:11:57;98981.38;;;20.52;nan
59375;BME280;45172;55.006;73.460;2023-07-20T01:14:25;98975.28;;;20.48;nan
59375;BME280;45172;55.006;73.460;2023-07-20T01:16:51;98975.00;;;20.55;nan
59375;BME280;45172;55.006;73.460;2023-07-20T01:19:18;98999.72;;;20.63;nan
59375;BME280;45172;55.006;73.460;2023-07-20T01:21:55;98983.69;;;20.60;nan
59375;BME280;45172;55.006;73.460;2023-07-20T01:24:45;98969.47;;;20.58;nan
59375;BME280;45172;55.006;73.460;2023-07-20T01:27:28;98988.66;;;20.88;nan
59375;BME280;45172;55.006;73.460;2023-07-20T01:30:03;98983.31;;;21.06;nan
59375;BME280;45172;55.006;73.460;2023-07-20T01:32:34;98986.91;;;21.24;nan
59375;BME280;45172;55.006;73.460;2023-07-20T01:35:02;98967.75;;;21.30;nan
59375;BME280;45172;55.006;73.460;2023-07-20T01:37:31;98984.31;;;21.58;nan
59375;BME280;45172;55.006;73.460;2023-07-20T01:39:58;98980.41;;;21.63;nan
59375;BME280;45172;55.006;73.460;2023-07-20T01:42:26;98988.22;;;21.70;nan
59375;BME280;45172;55.006;73.460;2023-07-20T01:44:52;98948.00;;;21.65;nan
59375;BME280;45172;55.006;73.460;2023-07-20T01:47:19;98983.25;;;21.96;nan
59375;BME280;45172;55.006;73.460;2023-07-20T01:49:45;99002.72;;;22.19;nan
59375;BME280;45172;55.006;73.460;2023-07-20T01:52:12;98998.56;;;22.29;nan
59375;BME280;45172;55.006;73.460;2023-07-20T01:54:38;98983.34;;;22.28;nan
59375;BME280;45172;55.006;73.460;2023-07-20T01:57:05;98994.84;;;22.48;nan
59375;BME280;45172;55.006;73.460;2023-07-20T01:59:31;98980.69;;;22.60;nan
59375;BME280;45172;55.006;73.460;2023-07-20T02:01:57;98984.44;;;22.74;nan
59375;BME280;45172;55.006;73.460;2023-07-20T02:04:23;98975.75;;;22.84;nan
59375;BME280;45172;55.006;73.460;2023-07-20T02:06:49;98932.13;;;22.76;nan
59375;BME280;45172;55.006;73.460;2023-07-20T02:09:15;98908.59;;;22.78;nan
59375;BME280;45172;55.006;73.460;2023-07-20T02:11:41;98953.81;;;23.21;nan
59375;BME280;45172;55.006;73.460;2023-07-20T02:14:07;98935.59;;;23.25;nan
59375;BME280;45172;55.006;73.460;2023-07-20T02:16:34;98984.53;;;23.51;nan
59375;BME280;45172;55.006;73.460;2023-07-20T02:19:00;98957.63;;;23.33;nan
59375;BME280;45172;55.006;73.460;2023-07-20T02:21:26;98982.00;;;23.48;nan
59375;BME280;45172;55.006;73.460;2023-07-20T02:23:52;98933.16;;;23.20;nan
59375;BME280;45172;55.006;73.460;2023-07-20T02:26:18;98969.50;;;23.61;nan
59375;BME280;45172;55.006;73.460;2023-07-20T02:28:44;98966.78;;;23.61;nan
59375;BME280;45172;55.006;73.460;2023-07-20T02:31:10;98935.63;;;23.56;nan
59375;BME280;45172;55.006;73.460;2023-07-20T02:33:36;98974.06;;;23.90;nan
59375;BME280;45172;55.006;73.460;2023-07-20T02:36:02;98952.81;;;23.84;nan
59375;BME280;45172;55.006;73.460;2023-07-20T02:38:28;98947.69;;;23.79;nan
59375;BME280;45172;55.006;73.460;2023-07-20T02:40:54;98968.66;;;23.90;nan
59375;BME280;45172;55.006;73.460;2023-07-20T02:43:21;98986.00;;;24.31;nan
59375;BME280;45172;55.006;73.460;2023-07-20T02:45:47;98978.09;;;24.42;nan
59375;BME280;45172;55.006;73.460;2023-07-20T02:48:13;98967.19;;;24.57;nan
59375;BME280;45172;55.006;73.460;2023-07-20T02:50:39;98954.63;;;24.70;nan
59375;BME280;45172;55.006;73.460;2023-07-20T02:53:08;98982.22;;;25.05;nan
59375;BME280;45172;55.006;73.460;2023-07-20T02:55:34;98950.69;;;25.03;nan
59375;BME280;45172;55.006;73.460;2023-07-20T02:58:00;98954.69;;;25.11;nan
59375;BME280;45172;55.006;73.460;2023-07-20T03:00:26;98955.59;;;25.24;nan
59375;BME280;45172;55.006;73.460;2023-07-20T03:02:53;98974.19;;;25.43;nan
59375;BME280;45172;55.006;73.460;2023-07-20T03:05:22;98961.63;;;25.42;nan
59375;BME280;45172;55.006;73.460;2023-07-20T03:07:51;98979.25;;;25.63;nan
59375;BME280;45172;55.006;73.460;2023-07-20T03:10:17;98982.94;;;25.75;nan
59375;BME280;45172;55.006;73.460;2023-07-20T03:12:43;98960.41;;;25.61;nan
59375;BME280;45172;55.006;73.460;2023-07-20T03:15:09;98979.59;;;25.84;nan
59375;BME280;45172;55.006;73.460;2023-07-20T03:17:36;98981.53;;;25.82;nan
59375;BME280;45172;55.006;73.460;2023-07-20T03:20:02;98977.88;;;25.96;nan
59375;BME280;45172;55.006;73.460;2023-07-20T03:22:28;98968.19;;;26.05;nan
59375;BME280;45172;55.006;73.460;2023-07-20T03:24:54;98953.47;;;26.09;nan
59375;BME280;45172;55.006;73.460;2023-07-20T03:27:21;98964.38;;;26.20;nan
59375;BME280;45172;55.006;73.460;2023-07-20T03:29:47;98947.47;;;26.17;nan
59375;BME280;45172;55.006;73.460;2023-07-20T03:32:13;98978.63;;;26.37;nan
59375;BME280;45172;55.006;73.460;2023-07-20T03:34:39;98981.19;;;26.51;nan
59375;BME280;45172;55.006;73.460;2023-07-20T03:37:06;98967.06;;;26.59;nan
59375;BME280;45172;55.006;73.460;2023-07-20T03:39:32;98987.03;;;26.71;nan
59375;BME280;45172;55.006;73.460;2023-07-20T03:41:58;98951.97;;;26.55;nan
59375;BME280;45172;55.006;73.460;2023-07-20T03:44:25;98988.00;;;26.70;nan
59375;BME280;45172;55.006;73.460;2023-07-20T03:46:51;98967.81;;;26.61;nan
59375;BME280;45172;55.006;73.460;2023-07-20T03:49:18;98957.06;;;26.60;nan
59375;BME280;45172;55.006;73.460;2023-07-20T03:51:44;98935.84;;;26.40;nan
59375;BME280;45172;55.006;73.460;2023-07-20T03:54:10;98984.31;;;26.71;nan
59375;BME280;45172;55.006;73.460;2023-07-20T03:56:36;98983.53;;;26.82;nan
59375;BME280;45172;55.006;73.460;2023-07-20T03:59:03;98956.41;;;26.69;nan
59375;BME280;45172;55.006;73.460;2023-07-20T04:01:29;98992.75;;;26.92;nan
59375;BME280;45172;55.006;73.460;2023-07-20T04:03:55;98950.16;;;26.80;nan
59375;BME280;45172;55.006;73.460;2023-07-20T04:06:22;98992.22;;;27.12;nan
59375;BME280;45172;55.006;73.460;2023-07-20T04:08:48;98948.59;;;26.89;nan
59375;BME280;45172;55.006;73.460;2023-07-20T04:11:14;98971.94;;;27.04;nan
59375;BME280;45172;55.006;73.460;2023-07-20T04:13:43;98975.75;;;27.02;nan
59375;BME280;45172;55.006;73.460;2023-07-20T04:16:09;98949.84;;;26.85;nan
59375;BME280;45172;55.006;73.460;2023-07-20T04:18:35;98993.13;;;26.99;nan
59375;BME280;45172;55.006;73.460;2023-07-20T04:21:01;98932.97;;;26.55;nan
59375;BME280;45172;55.006;73.460;2023-07-20T04:23:27;98965.69;;;26.91;nan
59375;BME280;45172;55.006;73.460;2023-07-20T04:25:53;98987.78;;;27.11;nan
59375;BME280;45172;55.006;73.460;2023-07-20T04:28:19;98939.06;;;26.83;nan
59375;BME280;45172;55.006;73.460;2023-07-20T04:30:49;98969.97;;;27.06;nan
59375;BME280;45172;55.006;73.460;2023-07-20T04:33:16;98967.13;;;27.08;nan
59375;BME280;45172;55.006;73.460;2023-07-20T04:35:52;98985.28;;;27.32;nan
59375;BME280;45172;55.006;73.460;2023-07-20T04:38:20;98977.03;;;27.45;nan
59375;BME280;45172;55.006;73.460;2023-07-20T04:40:48;98992.66;;;27.54;nan
59375;BME280;45172;55.006;73.460;2023-07-20T04:43:15;98982.31;;;27.59;nan
59375;BME280;45172;55.006;73.460;2023-07-20T04:45:44;98983.00;;;27.74;nan
59375;BME280;45172;55.006;73.460;2023-07-20T04:48:12;98983.00;;;27.86;nan
59375;BME280;45172;55.006;73.460;2023-07-20T04:50:40;98970.63;;;27.82;nan
59375;BME280;45172;55.006;73.460;2023-07-20T04:53:08;98966.66;;;27.86;nan
59375;BME280;45172;55.006;73.460;2023-07-20T04:55:37;98955.91;;;27.73;nan
59375;BME280;45172;55.006;73.460;2023-07-20T04:58:04;98959.34;;;27.75;nan
59375;BME280;45172;55.006;73.460;2023-07-20T05:00:31;98978.94;;;28.03;nan
59375;BME280;45172;55.006;73.460;2023-07-20T05:02:58;98940.47;;;27.85;nan
59375;BME280;45172;55.006;73.460;2023-07-20T05:05:27;98971.03;;;28.11;nan
59375;BME280;45172;55.006;73.460;2023-07-20T05:07:56;98972.06;;;28.22;nan
59375;BME280;45172;55.006;73.460;2023-07-20T05:10:23;98977.50;;;28.22;nan
59375;BME280;45172;55.006;73.460;2023-07-20T05:12:52;98937.25;;;28.02;nan
59375;BME280;45172;55.006;73.460;2023-07-20T05:15:29;98895.47;;;27.81;nan
59375;BME280;45172;55.006;73.460;2023-07-20T05:17:56;98979.47;;;28.42;nan
59375;BME280;45172;55.006;73.460;2023-07-20T05:20:22;98958.81;;;28.40;nan
59375;BME280;45172;55.006;73.460;2023-07-20T05:22:48;98959.53;;;28.53;nan
59375;BME280;45172;55.006;73.460;2023-07-20T05:25:14;98948.78;;;28.52;nan
59375;BME280;45172;55.006;73.460;2023-07-20T05:27:44;98964.34;;;28.73;nan
59375;BME280;45172;55.006;73.460;2023-07-20T05:30:12;98936.66;;;28.56;nan
59375;BME280;45172;55.006;73.460;2023-07-20T05:32:38;98981.19;;;28.78;nan
59375;BME280;45172;55.006;73.460;2023-07-20T05:35:04;98915.97;;;28.42;nan
59375;BME280;45172;55.006;73.460;2023-07-20T05:37:33;98929.72;;;28.52;nan
59375;BME280;45172;55.006;73.460;2023-07-20T05:40:00;98976.84;;;28.87;nan
59375;BME280;45172;55.006;73.460;2023-07-20T05:42:26;98978.06;;;28.94;nan
59375;BME280;45172;55.006;73.460;2023-07-20T05:44:53;98965.66;;;29.01;nan
59375;BME280;45172;55.006;73.460;2023-07-20T05:47:21;98943.41;;;28.84;nan
59375;BME280;45172;55.006;73.460;2023-07-20T05:49:47;98967.88;;;29.07;nan
59375;BME280;45172;55.006;73.460;2023-07-20T05:52:13;98967.09;;;29.17;nan
59375;BME280;45172;55.006;73.460;2023-07-20T05:54:39;98950.84;;;29.15;nan
59375;BME280;45172;55.006;73.460;2023-07-20T05:57:07;98914.88;;;29.00;nan
59375;BME280;45172;55.006;73.460;2023-07-20T05:59:33;98957.75;;;29.31;nan
59375;BME280;45172;55.006;73.460;2023-07-20T06:01:59;98933.31;;;29.08;nan
59375;BME280;45172;55.006;73.460;2023-07-20T06:04:25;98960.84;;;29.26;nan
59375;BME280;45172;55.006;73.460;2023-07-20T06:06:51;98953.34;;;29.18;nan
59375;BME280;45172;55.006;73.460;2023-07-20T06:09:18;98948.41;;;29.12;nan
59375;BME280;45172;55.006;73.460;2023-07-20T06:11:44;98971.25;;;29.32;nan
59375;BME280;45172;55.006;73.460;2023-07-20T06:14:11;98949.09;;;29.25;nan
59375;BME280;45172;55.006;73.460;2023-07-20T06:16:37;98945.88;;;29.20;nan
59375;BME280;45172;55.006;73.460;2023-07-20T06:19:03;98939.22;;;29.13;nan
59375;BME280;45172;55.006;73.460;2023-07-20T06:21:29;98962.94;;;29.34;nan
59375;BME280;45172;55.006;73.460;2023-07-20T06:23:55;98968.00;;;29.38;nan
59375;BME280;45172;55.006;73.460;2023-07-20T06:26:21;98969.00;;;29.37;nan
59375;BME280;45172;55.006;73.460;2023-07-20T06:28:48;98940.03;;;29.25;nan
59375;BME280;45172;55.006;73.460;2023-07-20T06:31:14;98962.13;;;29.55;nan
59375;BME280;45172;55.006;73.460;2023-07-20T06:33:40;98947.50;;;29.44;nan
59375;BME280;45172;55.006;73.460;2023-07-20T06:36:07;98946.50;;;29.57;nan
59375;BME280;45172;55.006;73.460;2023-07-20T06:38:33;98957.28;;;29.79;nan
59375;BME280;45172;55.006;73.460;2023-07-20T06:41:00;98954.19;;;29.94;nan
59375;BME280;45172;55.006;73.460;2023-07-20T06:43:26;98961.38;;;29.95;nan
59375;BME280;45172;55.006;73.460;2023-07-20T06:45:52;98957.06;;;29.92;nan
59375;BME280;45172;55.006;73.460;2023-07-20T06:48:21;98945.22;;;29.82;nan
59375;BME280;45172;55.006;73.460;2023-07-20T06:50:47;98955.91;;;29.95;nan
59375;BME280;45172;55.006;73.460;2023-07-20T06:53:39;98955.03;;;29.94;nan
59375;BME280;45172;55.006;73.460;2023-07-20T06:56:05;98919.78;;;29.82;nan
59375;BME280;45172;55.006;73.460;2023-07-20T06:58:31;98917.97;;;29.92;nan
59375;BME280;45172;55.006;73.460;2023-07-20T07:00:59;98946.47;;;30.20;nan
59375;BME280;45172;55.006;73.460;2023-07-20T07:03:25;98945.88;;;30.27;nan
59375;BME280;45172;55.006;73.460;2023-07-20T07:05:55;98924.03;;;30.27;nan
59375;BME280;45172;55.006;73.460;2023-07-20T07:08:23;98905.59;;;30.09;nan
59375;BME280;45172;55.006;73.460;2023-07-20T07:10:49;98941.75;;;30.32;nan
59375;BME280;45172;55.006;73.460;2023-07-20T07:13:16;98942.78;;;30.41;nan
59375;BME280;45172;55.006;73.460;2023-07-20T07:15:45;98934.91;;;30.48;nan
59375;BME280;45172;55.006;73.460;2023-07-20T07:18:11;98919.53;;;30.47;nan
59375;BME280;45172;55.006;73.460;2023-07-20T07:20:37;98919.69;;;30.55;nan
59375;BME280;45172;55.006;73.460;2023-07-20T07:23:04;98925.44;;;30.62;nan
59375;BME280;45172;55.006;73.460;2023-07-20T07:25:30;98926.16;;;30.64;nan
59375;BME280;45172;55.006;73.460;2023-07-20T07:27:57;98886.72;;;30.06;nan
59375;BME280;45172;55.006;73.460;2023-07-20T07:30:23;98909.31;;;30.08;nan
59375;BME280;45172;55.006;73.460;2023-07-20T07:32:51;98914.50;;;30.11;nan
59375;BME280;45172;55.006;73.460;2023-07-20T07:35:18;98924.19;;;29.94;nan
59375;BME280;45172;55.006;73.460;2023-07-20T07:37:44;98932.75;;;30.11;nan
59375;BME280;45172;55.006;73.460;2023-07-20T07:40:12;98916.84;;;30.26;nan
59375;BME280;45172;55.006;73.460;2023-07-20T07:42:38;98920.34;;;30.38;nan
59375;BME280;45172;55.006;73.460;2023-07-20T07:45:05;98910.09;;;30.20;nan
59375;BME280;45172;55.006;73.460;2023-07-20T07:47:31;98911.13;;;29.98;nan
59375;BME280;45172;55.006;73.460;2023-07-20T07:49:58;98914.63;;;29.78;nan
59375;BME280;45172;55.006;73.460;2023-07-20T07:52:25;98927.00;;;29.61;nan
59375;BME280;45172;55.006;73.460;2023-07-20T07:54:51;98932.16;;;29.43;nan
59375;BME280;45172;55.006;73.460;2023-07-20T07:57:17;98904.06;;;29.31;nan
59375;BME280;45172;55.006;73.460;2023-07-20T07:59:43;98897.81;;;29.52;nan
59375;BME280;45172;55.006;73.460;2023-07-20T08:02:09;98887.00;;;29.50;nan
59375;BME280;45172;55.006;73.460;2023-07-20T08:04:35;98940.91;;;29.79;nan
59375;BME280;45172;55.006;73.460;2023-07-20T08:07:03;98896.06;;;29.51;nan
59375;BME280;45172;55.006;73.460;2023-07-20T08:09:30;98926.94;;;29.51;nan
59375;BME280;45172;55.006;73.460;2023-07-20T08:11:57;98926.00;;;29.30;nan
59375;BME280;45172;55.006;73.460;2023-07-20T08:14:23;98908.53;;;29.11;nan
59375;BME280;45172;55.006;73.460;2023-07-20T08:16:49;98925.06;;;28.98;nan
59375;BME280;45172;55.006;73.460;2023-07-20T08:19:15;98883.69;;;28.49;nan
59375;BME280;45172;55.006;73.460;2023-07-20T08:21:41;98932.28;;;28.65;nan
59375;BME280;45172;55.006;73.460;2023-07-20T08:24:08;98920.50;;;28.87;nan
59375;BME280;45172;55.006;73.460;2023-07-20T08:26:34;98920.84;;;28.94;nan
59375;BME280;45172;55.006;73.460;2023-07-20T08:29:00;98883.13;;;28.78;nan
59375;BME280;45172;55.006;73.460;2023-07-20T08:31:26;98921.72;;;28.94;nan
59375;BME280;45172;55.006;73.460;2023-07-20T08:33:53;98877.25;;;28.94;nan
59375;BME280;45172;55.006;73.460;2023-07-20T08:36:20;98880.13;;;29.35;nan
59375;BME280;45172;55.006;73.460;2023-07-20T08:38:46;98899.06;;;30.00;nan
59375;BME280;45172;55.006;73.460;2023-07-20T08:41:13;98904.53;;;30.31;nan
59375;BME280;45172;55.006;73.460;2023-07-20T08:43:46;98866.75;;;30.46;nan
59375;BME280;45172;55.006;73.460;2023-07-20T08:46:42;98857.19;;;30.72;nan
59375;BME280;45172;55.006;73.460;2023-07-20T08:49:11;98887.69;;;31.16;nan
59375;BME280;45172;55.006;73.460;2023-07-20T08:51:38;98864.81;;;30.88;nan
59375;BME280;45172;55.006;73.460;2023-07-20T08:54:06;98855.56;;;30.59;nan
59375;BME280;45172;55.006;73.460;2023-07-20T08:56:34;98856.53;;;30.48;nan
59375;BME280;45172;55.006;73.460;2023-07-20T08:59:01;98830.09;;;30.49;nan
59375;BME280;45172;55.006;73.460;2023-07-20T09:01:28;98887.25;;;30.92;nan
59375;BME280;45172;55.006;73.460;2023-07-20T09:03:55;98865.66;;;30.69;nan
59375;BME280;45172;55.006;73.460;2023-07-20T09:06:22;98874.72;;;30.69;nan
59375;BME280;45172;55.006;73.460;2023-07-20T09:08:48;98892.50;;;30.54;nan
59375;BME280;45172;55.006;73.460;2023-07-20T09:11:15;98900.34;;;30.27;nan
59375;BME280;45172;55.006;73.460;2023-07-20T09:13:41;98907.78;;;29.94;nan
59375;BME280;45172;55.006;73.460;2023-07-20T09:16:07;98834.25;;;29.40;nan
59375;BME280;45172;55.006;73.460;2023-07-20T09:18:35;98889.22;;;29.57;nan
59375;BME280;45172;55.006;73.460;2023-07-20T09:21:05;98904.63;;;29.67;nan
59375;BME280;45172;55.006;73.460;2023-07-20T09:23:35;98892.66;;;29.59;nan
59375;BME280;45172;55.006;73.460;2023-07-20T09:26:12;98896.94;;;29.51;nan
59375;BME280;45172;55.006;73.460;2023-07-20T09:28:52;98905.56;;;29.35;nan
59375;BME280;45172;55.006;73.460;2023-07-20T09:31:19;98897.41;;;29.24;nan
59375;BME280;45172;55.006;73.460;2023-07-20T09:33:47;98865.63;;;28.92;nan
59375;BME280;45172;55.006;73.460;2023-07-20T09:36:14;98891.47;;;28.97;nan
59375;BME280;45172;55.006;73.460;2023-07-20T09:38:41;98902.16;;;28.89;nan
59375;BME280;45172;55.006;73.460;2023-07-20T09:41:08;98882.78;;;28.60;nan
59375;BME280;45172;55.006;73.460;2023-07-20T09:43:35;98904.47;;;28.50;nan
59375;BME280;45172;55.006;73.460;2023-07-20T09:46:01;98903.78;;;28.25;nan
59375;BME280;45172;55.006;73.460;2023-07-20T09:48:27;98901.78;;;28.15;nan
59375;BME280;45172;55.006;73.460;2023-07-20T09:50:54;98912.50;;;28.17;nan
59375;BME280;45172;55.006;73.460;2023-07-20T09:53:20;98892.88;;;28.02;nan
59375;BME280;45172;55.006;73.460;2023-07-20T09:55:47;98880.13;;;27.91;nan
59375;BME280;45172;55.006;73.460;2023-07-20T09:58:14;98912.31;;;28.20;nan
59375;BME280;45172;55.006;73.460;2023-07-20T10:00:42;98878.75;;;28.20;nan
59375;BME280;45172;55.006;73.460;2023-07-20T10:03:14;98893.81;;;28.58;nan
59375;BME280;45172;55.006;73.460;2023-07-20T10:05:54;98908.25;;;29.14;nan
59375;BME280;45172;55.006;73.460;2023-07-20T10:08:25;98912.22;;;29.43;nan
59375;BME280;45172;55.006;73.460;2023-07-20T10:10:51;98873.16;;;29.63;nan
59375;BME280;45172;55.006;73.460;2023-07-20T10:13:21;98915.84;;;30.27;nan
59375;BME280;45172;55.006;73.460;2023-07-20T10:15:54;98890.75;;;30.43;nan
59375;BME280;45172;55.006;73.460;2023-07-20T10:18:30;98920.09;;;30.60;nan
59375;BME280;45172;55.006;73.460;2023-07-20T10:20:59;98915.94;;;30.56;nan
59375;BME280;45172;55.006;73.460;2023-07-20T10:23:28;98915.13;;;30.25;nan
59375;BME280;45172;55.006;73.460;2023-07-20T10:25:56;98905.31;;;30.12;nan
59375;BME280;45172;55.006;73.460;2023-07-20T10:28:24;98936.56;;;30.29;nan
59375;BME280;45172;55.006;73.460;2023-07-20T10:30:50;98935.78;;;30.17;nan
59375;BME280;45172;55.006;73.460;2023-07-20T10:33:17;98950.25;;;30.08;nan
59375;BME280;45172;55.006;73.460;2023-07-20T10:38:18;98921.78;;;29.79;nan
59375;BME280;45172;55.006;73.460;2023-07-20T10:40:54;98876.50;;;29.46;nan
59375;BME280;45172;55.006;73.460;2023-07-20T10:43:20;98960.50;;;29.94;nan
59375;BME280;45172;55.006;73.460;2023-07-20T10:45:51;98957.34;;;29.89;nan
59375;BME280;45172;55.006;73.460;2023-07-20T10:48:24;98971.41;;;29.94;nan
59375;BME280;45172;55.006;73.460;2023-07-20T10:51:20;98946.19;;;29.38;nan
59375;BME280;45172;55.006;73.460;2023-07-20T10:53:48;98961.44;;;29.08;nan
59375;BME280;45172;55.006;73.460;2023-07-20T10:56:20;98986.03;;;28.85;nan
59375;BME280;45172;55.006;73.460;2023-07-20T10:58:47;98976.00;;;28.52;nan
59375;BME280;45172;55.006;73.460;2023-07-20T11:01:16;98981.72;;;28.26;nan
59375;BME280;45172;55.006;73.460;2023-07-20T11:03:49;98997.38;;;27.99;nan
59375;BME280;45172;55.006;73.460;2023-07-20T11:09:08;98989.91;;;27.18;nan
59375;BME280;45172;55.006;73.460;2023-07-20T11:11:38;98981.72;;;27.07;nan
59375;BME280;45172;55.006;73.460;2023-07-20T11:14:07;98983.41;;;26.97;nan
59375;BME280;45172;55.006;73.460;2023-07-20T11:16:40;98955.63;;;26.67;nan
59375;BME280;45172;55.006;73.460;2023-07-20T11:19:17;98922.47;;;26.50;nan
59375;BME280;45172;55.006;73.460;2023-07-20T11:21:45;98963.78;;;27.04;nan
59375;BME280;45172;55.006;73.460;2023-07-20T11:24:15;98946.94;;;27.24;nan
59375;BME280;45172;55.006;73.460;2023-07-20T11:26:54;98938.59;;;27.62;nan
59375;BME280;45172;55.006;73.460;2023-07-20T11:29:22;98934.41;;;28.04;nan
59375;BME280;45172;55.006;73.460;2023-07-20T11:31:49;98942.63;;;28.38;nan
59375;BME280;45172;55.006;73.460;2023-07-20T11:34:17;98940.31;;;28.78;nan
59375;BME280;45172;55.006;73.460;2023-07-20T11:36:48;98939.06;;;28.93;nan
59375;BME280;45172;55.006;73.460;2023-07-20T11:39:19;98933.16;;;29.09;nan
59375;BME280;45172;55.006;73.460;2023-07-20T11:41:50;98905.66;;;29.12;nan
59375;BME280;45172;55.006;73.460;2023-07-20T11:44:18;98904.66;;;29.14;nan
59375;BME280;45172;55.006;73.460;2023-07-20T11:46:44;98931.31;;;29.43;nan
59375;BME280;45172;55.006;73.460;2023-07-20T11:49:13;98926.56;;;29.45;nan
59375;BME280;45172;55.006;73.460;2023-07-20T11:51:40;98897.63;;;29.32;nan
59375;BME280;45172;55.006;73.460;2023-07-20T11:54:08;98938.22;;;29.68;nan
59375;BME280;45172;55.006;73.460;2023-07-20T11:56:35;98871.06;;;29.34;nan
59375;BME280;45172;55.006;73.460;2023-07-20T11:59:01;98922.00;;;29.66;nan
59375;BME280;45172;55.006;73.460;2023-07-20T12:01:29;98934.19;;;29.62;nan
59375;BME280;45172;55.006;73.460;2023-07-20T12:03:59;98941.88;;;29.57;nan
59375;BME280;45172;55.006;73.460;2023-07-20T12:06:45;98927.41;;;29.57;nan
59375;BME280;45172;55.006;73.460;2023-07-20T12:09:14;98913.06;;;29.43;nan
59375;BME280;45172;55.006;73.460;2023-07-20T12:11:43;98926.00;;;29.30;nan
59375;BME280;45172;55.006;73.460;2023-07-20T12:14:11;98926.81;;;28.88;nan
59375;BME280;45172;55.006;73.460;2023-07-20T12:16:37;98960.78;;;28.61;nan
59375;BME280;45172;55.006;73.460;2023-07-20T12:19:12;98952.72;;;28.13;nan
59375;BME280;45172;55.006;73.460;2023-07-20T12:21:40;98924.75;;;27.77;nan
59375;BME280;45172;55.006;73.460;2023-07-20T12:24:07;98940.06;;;27.67;nan
59375;BME280;45172;55.006;73.460;2023-07-20T12:26:35;98953.19;;;27.48;nan
59375;BME280;45172;55.006;73.460;2023-07-20T12:29:01;98940.34;;;27.15;nan
59375;BME280;45172;55.006;73.460;2023-07-20T12:31:30;98956.50;;;27.05;nan
59375;BME280;45172;55.006;73.460;2023-07-20T12:33:57;98879.91;;;26.51;nan
59375;BME280;45172;55.006;73.460;2023-07-20T12:36:24;98951.78;;;26.83;nan
59375;BME280;45172;55.006;73.460;2023-07-20T12:38:50;98912.19;;;26.43;nan
59375;BME280;45172;55.006;73.460;2023-07-20T12:41:17;98959.44;;;26.64;nan
59375;BME280;45172;55.006;73.460;2023-07-20T12:43:44;98965.75;;;26.65;nan
59375;BME280;45172;55.006;73.460;2023-07-20T12:46:12;98952.88;;;26.80;nan
59375;BME280;45172;55.006;73.460;2023-07-20T12:48:40;98945.97;;;27.25;nan
59375;BME280;45172;55.006;73.460;2023-07-20T12:51:28;98918.16;;;27.57;nan
59375;BME280;45172;55.006;73.460;2023-07-20T12:53:54;98942.88;;;28.24;nan
59375;BME280;45172;55.006;73.460;2023-07-20T12:56:20;98943.44;;;28.62;nan
59375;BME280;45172;55.006;73.460;2023-07-20T12:58:47;98917.91;;;28.85;nan
59375;BME280;45172;55.006;73.460;2023-07-20T13:01:15;98955.38;;;29.37;nan
59375;BME280;45172;55.006;73.460;2023-07-20T13:03:41;98918.16;;;29.48;nan
59375;BME280;45172;55.006;73.460;2023-07-20T13:06:07;98967.53;;;30.09;nan
59375;BME280;45172;55.006;73.460;2023-07-20T13:08:35;98965.50;;;30.42;nan
59375;BME280;45172;55.006;73.460;2023-07-20T13:11:01;98971.50;;;30.67;nan
59375;BME280;45172;55.006;73.460;2023-07-20T13:13:27;98940.47;;;30.78;nan
59375;BME280;45172;55.006;73.460;2023-07-20T13:15:55;98962.22;;;31.09;nan
59375;BME280;45172;55.006;73.460;2023-07-20T13:18:21;98958.97;;;31.25;nan
59375;BME280;45172;55.006;73.460;2023-07-20T13:20:47;98960.84;;;31.34;nan
59375;BME280;45172;55.006;73.460;2023-07-20T13:23:14;98971.34;;;31.59;nan